sensor_id;sensor_type;location;lat;lon;timestamp;pressure;altitude;pressure_sealevel;temperature;humidity
45939;BME280;31650;48.818;9.116;2023-04-15T00:07:23;97025.66;;;1.65;100.00
45939;BME280;31650;48.818;9.116;2023-04-15T00:22:23;97029.75;;;1.46;100.00
45939;BME280;31650;48.818;9.116;2023-04-15T00:37:24;97028.25;;;1.43;100.00
45939;BME280;31650;48.818;9.116;2023-04-15T00:52:24;97031.88;;;1.06;100.00
45939;BME280;31650;48.818;9.116;2023-04-15T01:07:25;97034.06;;;1.17;100.00
45939;BME280;31650;48.818;9.116;2023-04-15T01:22:26;97030.56;;;1.02;100.00
45939;BME280;31650;48.818;9.116;2023-04-15T01:37:26;97028.19;;;0.69;100.00
45939;BME280;31650;48.818;9.116;2023-04-15T01:52:26;97025.63;;;0.76;100.00
45939;BME280;31650;48.818;9.116;2023-04-15T02:07:27;97024.53;;;0.47;100.00
45939;BME280;31650;48.818;9.116;2023-04-15T02:22:31;97023.72;;;0.47;100.00
45939;BME280;31650;48.818;9.116;2023-04-15T02:37:31;97019.13;;;0.55;100.00
45939;BME280;31650;48.818;9.116;2023-04-15T02:52:34;97007.50;;;0.48;100.00
45939;BME280;31650;48.818;9.116;2023-04-15T03:07:34;97001.66;;;0.45;100.00
45939;BME280;31650;48.818;9.116;2023-04-15T03:22:35;97001.28;;;0.10;100.00
45939;BME280;31650;48.818;9.116;2023-04-15T03:37:35;97008.69;;;-0.01;100.00
45939;BME280;31650;48.818;9.116;2023-04-15T03:52:35;97003.41;;;0.37;100.00
45939;BME280;31650;48.818;9.116;2023-04-15T04:07:35;97005.69;;;0.03;100.00
45939;BME280;31650;48.818;9.116;2023-04-15T04:22:39;97018.25;;;-0.06;100.00
45939;BME280;31650;48.818;9.116;2023-04-15T04:37:40;97017.94;;;-0.11;100.00
45939;BME280;31650;48.818;9.116;2023-04-15T04:52:40;97027.47;;;-0.17;100.00
45939;BME280;31650;48.818;9.116;2023-04-15T05:07:41;97031.09;;;-0.10;100.00
45939;BME280;31650;48.818;9.116;2023-04-15T05:22:41;97040.66;;;0.16;100.00
45939;BME280;31650;48.818;9.116;2023-04-15T05:37:41;97029.31;;;1.94;100.00
45939;BME280;31650;48.818;9.116;2023-04-15T05:52:41;97024.97;;;3.76;100.00
45939;BME280;31650;48.818;9.116;2023-04-15T06:07:42;97009.50;;;3.85;100.00
45939;BME280;31650;48.818;9.116;2023-04-15T06:22:42;97014.41;;;4.76;100.00
45939;BME280;31650;48.818;9.116;2023-04-15T06:37:43;97018.28;;;5.53;100.00
45939;BME280;31650;48.818;9.116;2023-04-15T06:52:43;97016.41;;;6.51;100.00
45939;BME280;31650;48.818;9.116;2023-04-15T07:07:43;97004.06;;;7.92;100.00
45939;BME280;31650;48.818;9.116;2023-04-15T07:22:45;96982.38;;;10.75;73.09
45939;BME280;31650;48.818;9.116;2023-04-15T07:37:46;96990.00;;;11.06;62.63
45939;BME280;31650;48.818;9.116;2023-04-15T07:52:47;96991.19;;;10.36;63.90
45939;BME280;31650;48.818;9.116;2023-04-15T08:07:47;96977.03;;;10.80;61.99
45939;BME280;31650;48.818;9.116;2023-04-15T08:22:48;96971.19;;;13.88;57.31
45939;BME280;31650;48.818;9.116;2023-04-15T08:37:51;96970.16;;;15.08;53.70
45939;BME280;31650;48.818;9.116;2023-04-15T08:52:53;96974.31;;;14.12;54.23
45939;BME280;31650;48.818;9.116;2023-04-15T09:07:59;96978.06;;;14.95;51.27
45939;BME280;31650;48.818;9.116;2023-04-15T09:22:59;96986.03;;;15.06;49.51
45939;BME280;31650;48.818;9.116;2023-04-15T09:38:11;97003.25;;;15.07;47.20
45939;BME280;31650;48.818;9.116;2023-04-15T09:53:15;97011.19;;;14.10;52.07
45939;BME280;31650;48.818;9.116;2023-04-15T10:08:19;97014.13;;;14.66;52.77
45939;BME280;31650;48.818;9.116;2023-04-15T10:23:21;97013.94;;;14.10;51.65
45939;BME280;31650;48.818;9.116;2023-04-15T10:38:41;97022.69;;;15.41;51.50
45939;BME280;31650;48.818;9.116;2023-04-15T10:53:42;97036.09;;;14.18;49.73
45939;BME280;31650;48.818;9.116;2023-04-15T11:08:52;97031.78;;;14.38;48.97
45939;BME280;31650;48.818;9.116;2023-04-15T11:23:52;97024.16;;;16.94;46.52
45939;BME280;31650;48.818;9.116;2023-04-15T11:38:53;97044.44;;;13.54;53.17
45939;BME280;31650;48.818;9.116;2023-04-15T11:53:53;97048.16;;;14.27;53.67
45939;BME280;31650;48.818;9.116;2023-04-15T12:23:56;97102.41;;;13.66;53.08
45939;BME280;31650;48.818;9.116;2023-04-15T12:38:56;97141.94;;;11.03;69.44
45939;BME280;31650;48.818;9.116;2023-04-15T12:53:57;97169.84;;;11.89;69.33
45939;BME280;31650;48.818;9.116;2023-04-15T13:08:58;97181.91;;;12.93;57.17
45939;BME280;31650;48.818;9.116;2023-04-15T13:23:58;97199.28;;;12.26;56.75
45939;BME280;31650;48.818;9.116;2023-04-15T13:38:58;97210.66;;;12.79;51.27
45939;BME280;31650;48.818;9.116;2023-04-15T13:53:58;97226.84;;;12.86;49.07
45939;BME280;31650;48.818;9.116;2023-04-15T14:08:59;97230.94;;;11.93;49.25
45939;BME280;31650;48.818;9.116;2023-04-15T14:23:59;97258.31;;;11.29;49.56
45939;BME280;31650;48.818;9.116;2023-04-15T14:38:59;97283.03;;;10.87;51.69
45939;BME280;31650;48.818;9.116;2023-04-15T14:54:00;97329.19;;;10.17;55.66
45939;BME280;31650;48.818;9.116;2023-04-15T15:09:00;97342.47;;;9.16;65.46
45939;BME280;31650;48.818;9.116;2023-04-15T15:24:00;97333.91;;;9.19;65.56
45939;BME280;31650;48.818;9.116;2023-04-15T15:39:01;97365.03;;;9.65;62.39
45939;BME280;31650;48.818;9.116;2023-04-15T15:54:01;97360.66;;;9.94;61.39
45939;BME280;31650;48.818;9.116;2023-04-15T16:09:01;97405.00;;;9.88;67.68
45939;BME280;31650;48.818;9.116;2023-04-15T16:24:01;97430.41;;;8.83;100.00
45939;BME280;31650;48.818;9.116;2023-04-15T16:39:02;97469.84;;;8.54;100.00
45939;BME280;31650;48.818;9.116;2023-04-15T16:54:02;97507.75;;;8.09;100.00
45939;BME280;31650;48.818;9.116;2023-04-15T17:09:03;97536.03;;;7.68;100.00
45939;BME280;31650;48.818;9.116;2023-04-15T17:24:04;97556.25;;;7.45;100.00
45939;BME280;31650;48.818;9.116;2023-04-15T17:39:05;97593.72;;;7.22;100.00
45939;BME280;31650;48.818;9.116;2023-04-15T17:54:05;97623.03;;;7.05;100.00
45939;BME280;31650;48.818;9.116;2023-04-15T18:09:05;97648.16;;;6.99;100.00
45939;BME280;31650;48.818;9.116;2023-04-15T18:24:05;97657.72;;;7.01;100.00
45939;BME280;31650;48.818;9.116;2023-04-15T18:39:06;97684.47;;;6.83;100.00
45939;BME280;31650;48.818;9.116;2023-04-15T18:54:06;97701.31;;;6.72;100.00
45939;BME280;31650;48.818;9.116;2023-04-15T19:09:06;97732.66;;;6.73;100.00
45939;BME280;31650;48.818;9.116;2023-04-15T19:24:07;97736.41;;;6.72;100.00
45939;BME280;31650;48.818;9.116;2023-04-15T19:39:07;97751.78;;;6.71;100.00
45939;BME280;31650;48.818;9.116;2023-04-15T19:54:08;97755.28;;;6.65;100.00
45939;BME280;31650;48.818;9.116;2023-04-15T20:09:08;97760.72;;;6.72;100.00
45939;BME280;31650;48.818;9.116;2023-04-15T20:24:08;97757.16;;;6.65;100.00
45939;BME280;31650;48.818;9.116;2023-04-15T20:39:09;97762.16;;;6.68;100.00
45939;BME280;31650;48.818;9.116;2023-04-15T20:54:10;97767.16;;;6.64;100.00
45939;BME280;31650;48.818;9.116;2023-04-15T21:09:10;97781.66;;;6.63;100.00
45939;BME280;31650;48.818;9.116;2023-04-15T21:24:10;97796.22;;;6.62;100.00
45939;BME280;31650;48.818;9.116;2023-04-15T21:39:10;97806.63;;;6.65;100.00
45939;BME280;31650;48.818;9.116;2023-04-15T21:54:10;97819.28;;;6.65;100.00
45939;BME280;31650;48.818;9.116;2023-04-15T22:09:11;97831.50;;;6.60;100.00
45939;BME280;31650;48.818;9.116;2023-04-15T22:24:12;97834.41;;;6.59;100.00
45939;BME280;31650;48.818;9.116;2023-04-15T22:39:12;97855.00;;;6.60;100.00
45939;BME280;31650;48.818;9.116;2023-04-15T22:54:12;97866.19;;;6.57;100.00
45939;BME280;31650;48.818;9.116;2023-04-15T23:09:12;97879.66;;;6.50;100.00
45939;BME280;31650;48.818;9.116;2023-04-15T23:24:13;97880.53;;;6.57;100.00
45939;BME280;31650;48.818;9.116;2023-04-15T23:39:13;97898.78;;;6.55;100.00
45939;BME280;31650;48.818;9.116;2023-04-15T23:54:13;97898.97;;;6.54;100.00
